sensor_id;sensor_type;location;lat;lon;timestamp;P1;durP1;ratioP1;P2;durP2;ratioP2
9413;SDS011;4746;35.664;139.738;2022-09-16T00:01:14;6.75;;;6.25;;
9413;SDS011;4746;35.664;139.738;2022-09-16T00:03:44;8.48;;;6.93;;
9413;SDS011;4746;35.664;139.738;2022-09-16T00:06:19;8.55;;;6.18;;
9413;SDS011;4746;35.664;139.738;2022-09-16T00:08:56;7.38;;;5.80;;
9413;SDS011;4746;35.664;139.738;2022-09-16T00:11:26;7.85;;;5.75;;
9413;SDS011;4746;35.664;139.738;2022-09-16T00:13:58;9.07;;;5.90;;
9413;SDS011;4746;35.664;139.738;2022-09-16T00:16:26;6.47;;;5.65;;
9413;SDS011;4746;35.664;139.738;2022-09-16T00:18:56;7.00;;;5.90;;
9413;SDS011;4746;35.664;139.738;2022-09-16T00:21:26;6.88;;;5.95;;
9413;SDS011;4746;35.664;139.738;2022-09-16T00:23:55;7.22;;;6.03;;
9413;SDS011;4746;35.664;139.738;2022-09-16T00:26:24;6.88;;;5.70;;
9413;SDS011;4746;35.664;139.738;2022-09-16T00:28:51;8.27;;;6.22;;
9413;SDS011;4746;35.664;139.738;2022-09-16T00:31:21;12.10;;;6.30;;
9413;SDS011;4746;35.664;139.738;2022-09-16T00:33:49;6.88;;;6.15;;
9413;SDS011;4746;35.664;139.738;2022-09-16T00:36:17;9.35;;;5.78;;
9413;SDS011;4746;35.664;139.738;2022-09-16T00:38:52;7.05;;;6.03;;
9413;SDS011;4746;35.664;139.738;2022-09-16T00:41:22;6.88;;;6.05;;
9413;SDS011;4746;35.664;139.738;2022-09-16T00:43:59;8.90;;;6.03;;
9413;SDS011;4746;35.664;139.738;2022-09-16T00:46:35;8.32;;;5.90;;
9413;SDS011;4746;35.664;139.738;2022-09-16T00:49:16;9.15;;;5.35;;
9413;SDS011;4746;35.664;139.738;2022-09-16T00:51:56;6.88;;;5.57;;
9413;SDS011;4746;35.664;139.738;2022-09-16T00:54:30;6.15;;;4.78;;
9413;SDS011;4746;35.664;139.738;2022-09-16T00:57:02;6.65;;;4.38;;
9413;SDS011;4746;35.664;139.738;2022-09-16T00:59:34;6.32;;;4.80;;
9413;SDS011;4746;35.664;139.738;2022-09-16T01:02:12;5.78;;;4.60;;
9413;SDS011;4746;35.664;139.738;2022-09-16T01:04:58;6.82;;;6.10;;
9413;SDS011;4746;35.664;139.738;2022-09-16T01:07:38;7.80;;;5.13;;
9413;SDS011;4746;35.664;139.738;2022-09-16T01:10:15;6.32;;;5.72;;
9413;SDS011;4746;35.664;139.738;2022-09-16T01:12:47;9.82;;;5.32;;
9413;SDS011;4746;35.664;139.738;2022-09-16T01:15:36;6.43;;;4.88;;
9413;SDS011;4746;35.664;139.738;2022-09-16T01:18:22;9.75;;;5.75;;
9413;SDS011;4746;35.664;139.738;2022-09-16T01:21:21;9.00;;;5.40;;
9413;SDS011;4746;35.664;139.738;2022-09-16T01:24:38;8.02;;;4.85;;
9413;SDS011;4746;35.664;139.738;2022-09-16T01:48:01;6.85;;;3.55;;
9413;SDS011;4746;35.664;139.738;2022-09-16T01:53:48;6.30;;;4.20;;
9413;SDS011;4746;35.664;139.738;2022-09-16T01:59:42;8.35;;;4.65;;
9413;SDS011;4746;35.664;139.738;2022-09-16T02:02:30;6.65;;;3.75;;
9413;SDS011;4746;35.664;139.738;2022-09-16T02:05:48;8.88;;;4.13;;
9413;SDS011;4746;35.664;139.738;2022-09-16T02:08:43;8.27;;;4.70;;
9413;SDS011;4746;35.664;139.738;2022-09-16T02:11:27;7.55;;;4.68;;
9413;SDS011;4746;35.664;139.738;2022-09-16T02:14:14;7.95;;;3.90;;
9413;SDS011;4746;35.664;139.738;2022-09-16T02:19:23;8.50;;;3.47;;
9413;SDS011;4746;35.664;139.738;2022-09-16T02:22:49;6.20;;;2.88;;
9413;SDS011;4746;35.664;139.738;2022-09-16T02:25:26;6.10;;;3.10;;
9413;SDS011;4746;35.664;139.738;2022-09-16T02:28:01;6.05;;;3.55;;
9413;SDS011;4746;35.664;139.738;2022-09-16T02:30:38;5.03;;;2.67;;
9413;SDS011;4746;35.664;139.738;2022-09-16T02:33:13;7.57;;;3.33;;
9413;SDS011;4746;35.664;139.738;2022-09-16T02:35:45;5.43;;;3.45;;
9413;SDS011;4746;35.664;139.738;2022-09-16T02:38:23;5.90;;;3.35;;
9413;SDS011;4746;35.664;139.738;2022-09-16T02:40:59;6.13;;;2.22;;
9413;SDS011;4746;35.664;139.738;2022-09-16T02:43:28;4.15;;;2.30;;
9413;SDS011;4746;35.664;139.738;2022-09-16T02:48:52;6.78;;;2.13;;
9413;SDS011;4746;35.664;139.738;2022-09-16T02:54:41;3.78;;;1.85;;
9413;SDS011;4746;35.664;139.738;2022-09-16T02:57:26;5.03;;;1.83;;
9413;SDS011;4746;35.664;139.738;2022-09-16T02:59:55;4.70;;;2.30;;
9413;SDS011;4746;35.664;139.738;2022-09-16T03:02:23;5.57;;;2.28;;
9413;SDS011;4746;35.664;139.738;2022-09-16T03:04:51;3.55;;;1.80;;
9413;SDS011;4746;35.664;139.738;2022-09-16T03:07:18;4.35;;;1.95;;
9413;SDS011;4746;35.664;139.738;2022-09-16T03:09:46;5.22;;;2.03;;
9413;SDS011;4746;35.664;139.738;2022-09-16T03:12:32;6.10;;;2.03;;
9413;SDS011;4746;35.664;139.738;2022-09-16T03:15:20;4.03;;;1.70;;
9413;SDS011;4746;35.664;139.738;2022-09-16T03:21:06;4.50;;;2.40;;
9413;SDS011;4746;35.664;139.738;2022-09-16T03:24:07;7.38;;;1.75;;
9413;SDS011;4746;35.664;139.738;2022-09-16T03:30:05;5.20;;;1.67;;
9413;SDS011;4746;35.664;139.738;2022-09-16T03:32:35;4.15;;;1.70;;
9413;SDS011;4746;35.664;139.738;2022-09-16T03:35:19;3.53;;;1.80;;
9413;SDS011;4746;35.664;139.738;2022-09-16T03:38:11;4.95;;;1.35;;
9413;SDS011;4746;35.664;139.738;2022-09-16T03:40:41;2.78;;;1.45;;
9413;SDS011;4746;35.664;139.738;2022-09-16T03:43:12;4.18;;;1.70;;
9413;SDS011;4746;35.664;139.738;2022-09-16T03:45:42;5.22;;;1.73;;
9413;SDS011;4746;35.664;139.738;2022-09-16T03:48:11;4.43;;;2.05;;
9413;SDS011;4746;35.664;139.738;2022-09-16T03:50:39;3.28;;;1.73;;
9413;SDS011;4746;35.664;139.738;2022-09-16T03:53:07;2.85;;;1.85;;
9413;SDS011;4746;35.664;139.738;2022-09-16T03:55:34;3.35;;;1.65;;
9413;SDS011;4746;35.664;139.738;2022-09-16T03:58:02;3.58;;;1.80;;
9413;SDS011;4746;35.664;139.738;2022-09-16T04:00:30;3.40;;;1.98;;
9413;SDS011;4746;35.664;139.738;2022-09-16T04:02:58;4.28;;;2.45;;
9413;SDS011;4746;35.664;139.738;2022-09-16T04:05:26;4.47;;;2.05;;
9413;SDS011;4746;35.664;139.738;2022-09-16T04:07:54;3.05;;;1.65;;
9413;SDS011;4746;35.664;139.738;2022-09-16T04:10:21;4.20;;;1.92;;
9413;SDS011;4746;35.664;139.738;2022-09-16T04:12:49;7.43;;;1.98;;
9413;SDS011;4746;35.664;139.738;2022-09-16T04:15:21;5.55;;;1.73;;
9413;SDS011;4746;35.664;139.738;2022-09-16T04:17:48;4.60;;;1.52;;
9413;SDS011;4746;35.664;139.738;2022-09-16T04:20:16;4.68;;;1.65;;
9413;SDS011;4746;35.664;139.738;2022-09-16T04:22:45;3.97;;;1.85;;
9413;SDS011;4746;35.664;139.738;2022-09-16T04:25:13;3.47;;;1.98;;
9413;SDS011;4746;35.664;139.738;2022-09-16T04:27:52;3.47;;;1.70;;
9413;SDS011;4746;35.664;139.738;2022-09-16T04:30:22;3.80;;;2.17;;
9413;SDS011;4746;35.664;139.738;2022-09-16T04:32:55;3.63;;;1.42;;
9413;SDS011;4746;35.664;139.738;2022-09-16T04:35:38;2.55;;;1.20;;
9413;SDS011;4746;35.664;139.738;2022-09-16T04:38:07;3.05;;;1.85;;
9413;SDS011;4746;35.664;139.738;2022-09-16T04:40:38;3.30;;;1.40;;
9413;SDS011;4746;35.664;139.738;2022-09-16T04:43:06;2.63;;;1.42;;
9413;SDS011;4746;35.664;139.738;2022-09-16T04:45:40;2.92;;;1.70;;
9413;SDS011;4746;35.664;139.738;2022-09-16T04:48:16;3.47;;;1.45;;
9413;SDS011;4746;35.664;139.738;2022-09-16T04:50:46;5.35;;;1.48;;
9413;SDS011;4746;35.664;139.738;2022-09-16T04:53:20;4.05;;;2.00;;
9413;SDS011;4746;35.664;139.738;2022-09-16T04:56:01;4.55;;;1.90;;
9413;SDS011;4746;35.664;139.738;2022-09-16T04:58:45;3.17;;;1.58;;
9413;SDS011;4746;35.664;139.738;2022-09-16T05:01:28;3.88;;;1.77;;
9413;SDS011;4746;35.664;139.738;2022-09-16T05:04:03;4.78;;;1.95;;
9413;SDS011;4746;35.664;139.738;2022-09-16T05:06:35;2.45;;;1.38;;
9413;SDS011;4746;35.664;139.738;2022-09-16T05:09:06;3.65;;;1.50;;
9413;SDS011;4746;35.664;139.738;2022-09-16T05:11:38;3.47;;;1.60;;
9413;SDS011;4746;35.664;139.738;2022-09-16T05:14:07;2.83;;;1.10;;
9413;SDS011;4746;35.664;139.738;2022-09-16T05:16:44;4.95;;;1.70;;
9413;SDS011;4746;35.664;139.738;2022-09-16T05:19:19;5.22;;;2.35;;
9413;SDS011;4746;35.664;139.738;2022-09-16T05:21:48;7.53;;;2.13;;
9413;SDS011;4746;35.664;139.738;2022-09-16T05:24:21;4.63;;;1.83;;
9413;SDS011;4746;35.664;139.738;2022-09-16T05:26:58;2.80;;;1.70;;
9413;SDS011;4746;35.664;139.738;2022-09-16T05:29:28;4.38;;;1.75;;
9413;SDS011;4746;35.664;139.738;2022-09-16T05:31:55;3.85;;;1.65;;
9413;SDS011;4746;35.664;139.738;2022-09-16T05:34:23;4.25;;;1.58;;
9413;SDS011;4746;35.664;139.738;2022-09-16T05:36:53;4.10;;;2.20;;
9413;SDS011;4746;35.664;139.738;2022-09-16T05:39:22;5.65;;;1.70;;
9413;SDS011;4746;35.664;139.738;2022-09-16T05:41:59;3.13;;;1.23;;
9413;SDS011;4746;35.664;139.738;2022-09-16T05:44:29;7.32;;;2.05;;
9413;SDS011;4746;35.664;139.738;2022-09-16T05:46:57;3.22;;;1.73;;
9413;SDS011;4746;35.664;139.738;2022-09-16T05:49:24;7.80;;;2.20;;
9413;SDS011;4746;35.664;139.738;2022-09-16T05:51:52;3.22;;;1.40;;
9413;SDS011;4746;35.664;139.738;2022-09-16T05:54:20;6.90;;;2.05;;
9413;SDS011;4746;35.664;139.738;2022-09-16T05:56:49;7.93;;;2.10;;
9413;SDS011;4746;35.664;139.738;2022-09-16T05:59:17;5.78;;;1.90;;
9413;SDS011;4746;35.664;139.738;2022-09-16T06:01:45;4.45;;;2.28;;
9413;SDS011;4746;35.664;139.738;2022-09-16T06:04:13;4.90;;;2.08;;
9413;SDS011;4746;35.664;139.738;2022-09-16T06:06:42;7.70;;;2.30;;
9413;SDS011;4746;35.664;139.738;2022-09-16T06:09:12;3.58;;;2.22;;
9413;SDS011;4746;35.664;139.738;2022-09-16T06:11:46;6.78;;;2.20;;
9413;SDS011;4746;35.664;139.738;2022-09-16T06:14:17;5.72;;;2.20;;
9413;SDS011;4746;35.664;139.738;2022-09-16T06:16:47;6.03;;;1.95;;
9413;SDS011;4746;35.664;139.738;2022-09-16T06:19:15;4.20;;;1.75;;
9413;SDS011;4746;35.664;139.738;2022-09-16T06:21:44;2.58;;;1.40;;
9413;SDS011;4746;35.664;139.738;2022-09-16T06:24:13;3.83;;;2.00;;
9413;SDS011;4746;35.664;139.738;2022-09-16T06:26:43;3.00;;;1.70;;
9413;SDS011;4746;35.664;139.738;2022-09-16T06:29:13;3.22;;;1.83;;
9413;SDS011;4746;35.664;139.738;2022-09-16T06:31:42;4.40;;;2.20;;
9413;SDS011;4746;35.664;139.738;2022-09-16T06:34:13;4.07;;;2.40;;
9413;SDS011;4746;35.664;139.738;2022-09-16T06:36:45;4.35;;;2.70;;
9413;SDS011;4746;35.664;139.738;2022-09-16T06:39:13;3.15;;;2.58;;
9413;SDS011;4746;35.664;139.738;2022-09-16T06:41:41;3.53;;;2.50;;
9413;SDS011;4746;35.664;139.738;2022-09-16T06:44:10;3.97;;;2.28;;
9413;SDS011;4746;35.664;139.738;2022-09-16T06:46:38;2.35;;;2.00;;
9413;SDS011;4746;35.664;139.738;2022-09-16T06:49:05;5.93;;;2.03;;
9413;SDS011;4746;35.664;139.738;2022-09-16T06:51:35;3.35;;;1.55;;
9413;SDS011;4746;35.664;139.738;2022-09-16T06:54:03;3.53;;;1.88;;
9413;SDS011;4746;35.664;139.738;2022-09-16T06:56:33;5.03;;;2.67;;
9413;SDS011;4746;35.664;139.738;2022-09-16T06:59:03;5.78;;;3.35;;
9413;SDS011;4746;35.664;139.738;2022-09-16T07:01:32;11.20;;;3.70;;
9413;SDS011;4746;35.664;139.738;2022-09-16T07:04:04;8.68;;;3.47;;
9413;SDS011;4746;35.664;139.738;2022-09-16T07:06:35;6.45;;;3.10;;
9413;SDS011;4746;35.664;139.738;2022-09-16T07:09:04;7.45;;;4.18;;
9413;SDS011;4746;35.664;139.738;2022-09-16T07:11:32;8.90;;;3.80;;
9413;SDS011;4746;35.664;139.738;2022-09-16T07:13:59;4.95;;;3.33;;
9413;SDS011;4746;35.664;139.738;2022-09-16T07:16:28;7.43;;;3.58;;
9413;SDS011;4746;35.664;139.738;2022-09-16T07:18:56;6.40;;;2.88;;
9413;SDS011;4746;35.664;139.738;2022-09-16T07:21:25;9.60;;;3.20;;
9413;SDS011;4746;35.664;139.738;2022-09-16T07:23:55;5.90;;;2.70;;
9413;SDS011;4746;35.664;139.738;2022-09-16T07:26:26;7.93;;;3.15;;
9413;SDS011;4746;35.664;139.738;2022-09-16T07:29:03;5.90;;;2.92;;
9413;SDS011;4746;35.664;139.738;2022-09-16T07:31:33;6.85;;;3.10;;
9413;SDS011;4746;35.664;139.738;2022-09-16T07:34:03;4.07;;;2.60;;
9413;SDS011;4746;35.664;139.738;2022-09-16T07:36:35;4.88;;;2.38;;
9413;SDS011;4746;35.664;139.738;2022-09-16T07:39:07;5.35;;;2.50;;
9413;SDS011;4746;35.664;139.738;2022-09-16T07:41:38;4.20;;;2.42;;
9413;SDS011;4746;35.664;139.738;2022-09-16T07:44:11;6.68;;;2.63;;
9413;SDS011;4746;35.664;139.738;2022-09-16T07:46:43;4.88;;;2.30;;
9413;SDS011;4746;35.664;139.738;2022-09-16T07:49:11;4.85;;;2.65;;
9413;SDS011;4746;35.664;139.738;2022-09-16T07:51:41;6.20;;;2.63;;
9413;SDS011;4746;35.664;139.738;2022-09-16T07:54:13;5.28;;;2.63;;
9413;SDS011;4746;35.664;139.738;2022-09-16T07:56:44;6.13;;;2.40;;
9413;SDS011;4746;35.664;139.738;2022-09-16T07:59:13;6.05;;;2.38;;
9413;SDS011;4746;35.664;139.738;2022-09-16T08:01:43;6.18;;;2.38;;
9413;SDS011;4746;35.664;139.738;2022-09-16T08:04:13;5.30;;;2.40;;
9413;SDS011;4746;35.664;139.738;2022-09-16T08:06:41;6.82;;;2.53;;
9413;SDS011;4746;35.664;139.738;2022-09-16T08:09:09;2.90;;;2.10;;
9413;SDS011;4746;35.664;139.738;2022-09-16T08:11:36;4.68;;;2.33;;
9413;SDS011;4746;35.664;139.738;2022-09-16T08:14:04;4.63;;;2.05;;
9413;SDS011;4746;35.664;139.738;2022-09-16T08:16:31;3.88;;;2.40;;
9413;SDS011;4746;35.664;139.738;2022-09-16T08:18:59;3.70;;;1.92;;
9413;SDS011;4746;35.664;139.738;2022-09-16T08:21:31;3.50;;;2.70;;
9413;SDS011;4746;35.664;139.738;2022-09-16T08:23:58;5.35;;;2.35;;
9413;SDS011;4746;35.664;139.738;2022-09-16T08:26:26;6.05;;;2.85;;
9413;SDS011;4746;35.664;139.738;2022-09-16T08:28:53;7.47;;;2.92;;
9413;SDS011;4746;35.664;139.738;2022-09-16T08:31:21;5.10;;;3.15;;
9413;SDS011;4746;35.664;139.738;2022-09-16T08:33:48;6.15;;;3.40;;
9413;SDS011;4746;35.664;139.738;2022-09-16T08:36:17;6.28;;;4.00;;
9413;SDS011;4746;35.664;139.738;2022-09-16T08:38:51;6.03;;;3.83;;
9413;SDS011;4746;35.664;139.738;2022-09-16T08:41:27;7.80;;;4.72;;
9413;SDS011;4746;35.664;139.738;2022-09-16T08:47:47;8.68;;;4.40;;
9413;SDS011;4746;35.664;139.738;2022-09-16T08:50:24;8.30;;;4.25;;
9413;SDS011;4746;35.664;139.738;2022-09-16T08:52:57;6.50;;;4.43;;
9413;SDS011;4746;35.664;139.738;2022-09-16T08:55:36;6.45;;;4.63;;
9413;SDS011;4746;35.664;139.738;2022-09-16T09:04:02;5.43;;;4.90;;
9413;SDS011;4746;35.664;139.738;2022-09-16T09:06:47;6.15;;;4.95;;
9413;SDS011;4746;35.664;139.738;2022-09-16T09:12:58;7.80;;;4.85;;
9413;SDS011;4746;35.664;139.738;2022-09-16T09:15:45;9.52;;;5.00;;
9413;SDS011;4746;35.664;139.738;2022-09-16T09:22:01;11.18;;;5.13;;
9413;SDS011;4746;35.664;139.738;2022-09-16T09:30:25;7.75;;;3.33;;
9413;SDS011;4746;35.664;139.738;2022-09-16T09:33:01;5.32;;;3.05;;
9413;SDS011;4746;35.664;139.738;2022-09-16T09:36:11;7.35;;;3.22;;
9413;SDS011;4746;35.664;139.738;2022-09-16T09:39:26;5.45;;;2.30;;
9413;SDS011;4746;35.664;139.738;2022-09-16T09:42:30;6.20;;;3.20;;
9413;SDS011;4746;35.664;139.738;2022-09-16T09:45:17;5.28;;;2.90;;
9413;SDS011;4746;35.664;139.738;2022-09-16T09:47:52;5.90;;;3.10;;
9413;SDS011;4746;35.664;139.738;2022-09-16T09:50:38;4.72;;;2.60;;
9413;SDS011;4746;35.664;139.738;2022-09-16T09:59:15;4.13;;;2.90;;
9413;SDS011;4746;35.664;139.738;2022-09-16T10:02:18;4.25;;;2.75;;
9413;SDS011;4746;35.664;139.738;2022-09-16T10:04:48;6.85;;;3.00;;
9413;SDS011;4746;35.664;139.738;2022-09-16T10:07:20;5.82;;;3.17;;
9413;SDS011;4746;35.664;139.738;2022-09-16T10:12:37;5.00;;;3.20;;
9413;SDS011;4746;35.664;139.738;2022-09-16T10:15:05;6.38;;;2.50;;
9413;SDS011;4746;35.664;139.738;2022-09-16T10:17:49;7.43;;;2.83;;
9413;SDS011;4746;35.664;139.738;2022-09-16T10:20:29;5.53;;;2.85;;
9413;SDS011;4746;35.664;139.738;2022-09-16T10:23:14;4.70;;;2.65;;
9413;SDS011;4746;35.664;139.738;2022-09-16T10:26:01;6.95;;;3.22;;
9413;SDS011;4746;35.664;139.738;2022-09-16T10:28:39;6.70;;;3.03;;
9413;SDS011;4746;35.664;139.738;2022-09-16T10:31:06;4.05;;;2.90;;
9413;SDS011;4746;35.664;139.738;2022-09-16T10:33:41;5.53;;;2.75;;
9413;SDS011;4746;35.664;139.738;2022-09-16T10:36:16;8.30;;;3.10;;
9413;SDS011;4746;35.664;139.738;2022-09-16T10:38:53;7.28;;;2.95;;
9413;SDS011;4746;35.664;139.738;2022-09-16T10:41:40;4.20;;;2.80;;
9413;SDS011;4746;35.664;139.738;2022-09-16T10:44:30;6.65;;;2.50;;
9413;SDS011;4746;35.664;139.738;2022-09-16T10:47:03;3.03;;;2.45;;
9413;SDS011;4746;35.664;139.738;2022-09-16T10:49:45;6.55;;;2.80;;
9413;SDS011;4746;35.664;139.738;2022-09-16T10:52:27;5.95;;;2.67;;
9413;SDS011;4746;35.664;139.738;2022-09-16T10:55:19;4.65;;;2.67;;
9413;SDS011;4746;35.664;139.738;2022-09-16T10:58:35;6.45;;;2.90;;
9413;SDS011;4746;35.664;139.738;2022-09-16T11:10:13;3.80;;;2.17;;
9413;SDS011;4746;35.664;139.738;2022-09-16T11:25:11;6.30;;;2.80;;
9413;SDS011;4746;35.664;139.738;2022-09-16T11:37:03;5.40;;;3.42;;
9413;SDS011;4746;35.664;139.738;2022-09-16T11:42:27;6.80;;;3.03;;
9413;SDS011;4746;35.664;139.738;2022-09-16T11:51:23;4.78;;;2.28;;
9413;SDS011;4746;35.664;139.738;2022-09-16T11:54:35;4.60;;;2.70;;
9413;SDS011;4746;35.664;139.738;2022-09-16T11:57:21;5.32;;;2.45;;
9413;SDS011;4746;35.664;139.738;2022-09-16T11:59:58;6.30;;;2.38;;
9413;SDS011;4746;35.664;139.738;2022-09-16T12:05:36;5.93;;;2.33;;
9413;SDS011;4746;35.664;139.738;2022-09-16T12:11:31;5.35;;;2.10;;
9413;SDS011;4746;35.664;139.738;2022-09-16T12:17:38;5.07;;;2.10;;
9413;SDS011;4746;35.664;139.738;2022-09-16T12:22:47;3.60;;;1.95;;
9413;SDS011;4746;35.664;139.738;2022-09-16T12:26:18;3.15;;;2.10;;
9413;SDS011;4746;35.664;139.738;2022-09-16T12:28:35;5.22;;;2.08;;
9413;SDS011;4746;35.664;139.738;2022-09-16T12:31:22;6.47;;;2.47;;
9413;SDS011;4746;35.664;139.738;2022-09-16T12:34:20;3.53;;;2.03;;
9413;SDS011;4746;35.664;139.738;2022-09-16T12:36:57;4.07;;;2.05;;
9413;SDS011;4746;35.664;139.738;2022-09-16T12:39:59;4.38;;;2.10;;
9413;SDS011;4746;35.664;139.738;2022-09-16T12:42:45;3.63;;;2.10;;
9413;SDS011;4746;35.664;139.738;2022-09-16T12:52:21;5.57;;;2.50;;
9413;SDS011;4746;35.664;139.738;2022-09-16T12:54:54;3.15;;;2.08;;
9413;SDS011;4746;35.664;139.738;2022-09-16T13:03:52;3.60;;;2.40;;
9413;SDS011;4746;35.664;139.738;2022-09-16T13:06:29;5.57;;;2.20;;
9413;SDS011;4746;35.664;139.738;2022-09-16T13:12:01;5.13;;;2.55;;
9413;SDS011;4746;35.664;139.738;2022-09-16T13:14:48;9.73;;;3.17;;
9413;SDS011;4746;35.664;139.738;2022-09-16T13:17:27;5.20;;;2.20;;
9413;SDS011;4746;35.664;139.738;2022-09-16T13:20:05;5.45;;;2.22;;
9413;SDS011;4746;35.664;139.738;2022-09-16T13:33:48;7.72;;;2.78;;
9413;SDS011;4746;35.664;139.738;2022-09-16T13:36:40;4.25;;;2.22;;
9413;SDS011;4746;35.664;139.738;2022-09-16T13:39:13;5.13;;;2.25;;
9413;SDS011;4746;35.664;139.738;2022-09-16T13:41:54;4.15;;;2.42;;
9413;SDS011;4746;35.664;139.738;2022-09-16T13:47:05;5.15;;;2.20;;
9413;SDS011;4746;35.664;139.738;2022-09-16T13:49:50;7.90;;;2.75;;
9413;SDS011;4746;35.664;139.738;2022-09-16T13:52:36;5.90;;;2.40;;
9413;SDS011;4746;35.664;139.738;2022-09-16T13:55:16;4.97;;;2.20;;
9413;SDS011;4746;35.664;139.738;2022-09-16T14:12:38;7.82;;;2.70;;
9413;SDS011;4746;35.664;139.738;2022-09-16T14:14:46;4.82;;;2.00;;
9413;SDS011;4746;35.664;139.738;2022-09-16T14:17:22;4.13;;;2.17;;
9413;SDS011;4746;35.664;139.738;2022-09-16T14:20:18;4.38;;;2.00;;
9413;SDS011;4746;35.664;139.738;2022-09-16T14:23:34;4.03;;;1.80;;
9413;SDS011;4746;35.664;139.738;2022-09-16T14:25:44;4.80;;;2.05;;
9413;SDS011;4746;35.664;139.738;2022-09-16T14:28:18;4.40;;;1.98;;
9413;SDS011;4746;35.664;139.738;2022-09-16T14:30:57;3.92;;;1.88;;
9413;SDS011;4746;35.664;139.738;2022-09-16T14:36:23;4.93;;;2.22;;
9413;SDS011;4746;35.664;139.738;2022-09-16T14:39:00;3.78;;;2.10;;
9413;SDS011;4746;35.664;139.738;2022-09-16T14:41:47;4.03;;;1.40;;
9413;SDS011;4746;35.664;139.738;2022-09-16T14:44:38;4.18;;;1.90;;
9413;SDS011;4746;35.664;139.738;2022-09-16T14:47:34;3.05;;;1.63;;
9413;SDS011;4746;35.664;139.738;2022-09-16T14:50:06;4.05;;;2.08;;
9413;SDS011;4746;35.664;139.738;2022-09-16T14:53:00;3.55;;;1.90;;
9413;SDS011;4746;35.664;139.738;2022-09-16T14:55:32;4.90;;;1.95;;
9413;SDS011;4746;35.664;139.738;2022-09-16T14:58:04;7.00;;;1.98;;
9413;SDS011;4746;35.664;139.738;2022-09-16T15:00:43;4.28;;;2.10;;
9413;SDS011;4746;35.664;139.738;2022-09-16T15:03:33;5.35;;;1.83;;
9413;SDS011;4746;35.664;139.738;2022-09-16T15:06:21;5.53;;;1.77;;
9413;SDS011;4746;35.664;139.738;2022-09-16T15:08:58;4.57;;;2.15;;
9413;SDS011;4746;35.664;139.738;2022-09-16T15:11:47;2.90;;;1.27;;
9413;SDS011;4746;35.664;139.738;2022-09-16T15:14:24;6.38;;;2.03;;
9413;SDS011;4746;35.664;139.738;2022-09-16T15:16:54;5.03;;;2.10;;
9413;SDS011;4746;35.664;139.738;2022-09-16T15:19:31;6.55;;;1.65;;
9413;SDS011;4746;35.664;139.738;2022-09-16T15:22:04;3.90;;;1.85;;
9413;SDS011;4746;35.664;139.738;2022-09-16T15:24:39;5.88;;;1.80;;
9413;SDS011;4746;35.664;139.738;2022-09-16T15:27:07;4.88;;;1.90;;
9413;SDS011;4746;35.664;139.738;2022-09-16T15:29:45;5.25;;;1.63;;
9413;SDS011;4746;35.664;139.738;2022-09-16T15:32:24;5.00;;;1.63;;
9413;SDS011;4746;35.664;139.738;2022-09-16T15:37:40;5.80;;;2.10;;
9413;SDS011;4746;35.664;139.738;2022-09-16T15:42:47;5.55;;;1.83;;
9413;SDS011;4746;35.664;139.738;2022-09-16T15:45:29;7.25;;;2.33;;
9413;SDS011;4746;35.664;139.738;2022-09-16T15:48:04;6.15;;;2.38;;
9413;SDS011;4746;35.664;139.738;2022-09-16T15:50:50;4.95;;;2.10;;
9413;SDS011;4746;35.664;139.738;2022-09-16T15:56:20;7.22;;;2.22;;
9413;SDS011;4746;35.664;139.738;2022-09-16T15:59:19;4.97;;;1.90;;
9413;SDS011;4746;35.664;139.738;2022-09-16T16:02:35;5.65;;;1.80;;
9413;SDS011;4746;35.664;139.738;2022-09-16T16:05:53;6.55;;;2.00;;
9413;SDS011;4746;35.664;139.738;2022-09-16T16:11:19;6.32;;;2.05;;
9413;SDS011;4746;35.664;139.738;2022-09-16T16:13:48;5.10;;;1.92;;
9413;SDS011;4746;35.664;139.738;2022-09-16T16:16:16;4.70;;;2.08;;
9413;SDS011;4746;35.664;139.738;2022-09-16T16:18:44;3.67;;;2.10;;
9413;SDS011;4746;35.664;139.738;2022-09-16T16:21:15;9.13;;;2.20;;
9413;SDS011;4746;35.664;139.738;2022-09-16T16:23:42;7.10;;;1.83;;
9413;SDS011;4746;35.664;139.738;2022-09-16T16:26:10;5.22;;;1.90;;
9413;SDS011;4746;35.664;139.738;2022-09-16T16:28:38;5.07;;;2.50;;
9413;SDS011;4746;35.664;139.738;2022-09-16T16:31:09;6.20;;;2.35;;
9413;SDS011;4746;35.664;139.738;2022-09-16T16:33:43;5.30;;;2.10;;
9413;SDS011;4746;35.664;139.738;2022-09-16T16:36:12;6.60;;;2.15;;
9413;SDS011;4746;35.664;139.738;2022-09-16T16:38:43;3.80;;;1.80;;
9413;SDS011;4746;35.664;139.738;2022-09-16T16:41:22;4.72;;;2.20;;
9413;SDS011;4746;35.664;139.738;2022-09-16T16:43:50;4.25;;;2.13;;
9413;SDS011;4746;35.664;139.738;2022-09-16T16:46:18;4.75;;;2.10;;
9413;SDS011;4746;35.664;139.738;2022-09-16T16:48:46;5.75;;;1.80;;
9413;SDS011;4746;35.664;139.738;2022-09-16T16:51:14;5.38;;;1.85;;
9413;SDS011;4746;35.664;139.738;2022-09-16T16:53:45;5.30;;;2.13;;
9413;SDS011;4746;35.664;139.738;2022-09-16T16:56:17;7.63;;;2.13;;
9413;SDS011;4746;35.664;139.738;2022-09-16T16:58:45;5.72;;;2.17;;
9413;SDS011;4746;35.664;139.738;2022-09-16T17:01:14;4.05;;;2.00;;
9413;SDS011;4746;35.664;139.738;2022-09-16T17:03:44;4.68;;;1.90;;
9413;SDS011;4746;35.664;139.738;2022-09-16T17:06:16;6.38;;;2.45;;
9413;SDS011;4746;35.664;139.738;2022-09-16T17:08:43;4.07;;;1.90;;
9413;SDS011;4746;35.664;139.738;2022-09-16T17:11:15;5.78;;;1.80;;
9413;SDS011;4746;35.664;139.738;2022-09-16T17:13:48;7.20;;;2.28;;
9413;SDS011;4746;35.664;139.738;2022-09-16T17:16:18;5.97;;;3.05;;
9413;SDS011;4746;35.664;139.738;2022-09-16T17:18:49;5.63;;;3.05;;
9413;SDS011;4746;35.664;139.738;2022-09-16T17:21:19;4.57;;;3.08;;
9413;SDS011;4746;35.664;139.738;2022-09-16T17:23:53;4.55;;;3.17;;
9413;SDS011;4746;35.664;139.738;2022-09-16T17:26:21;7.05;;;3.58;;
9413;SDS011;4746;35.664;139.738;2022-09-16T17:28:50;5.72;;;4.15;;
9413;SDS011;4746;35.664;139.738;2022-09-16T17:31:22;5.78;;;3.03;;
9413;SDS011;4746;35.664;139.738;2022-09-16T17:34:03;8.20;;;3.65;;
9413;SDS011;4746;35.664;139.738;2022-09-16T17:36:35;7.00;;;3.20;;
9413;SDS011;4746;35.664;139.738;2022-09-16T17:39:06;8.52;;;3.60;;
9413;SDS011;4746;35.664;139.738;2022-09-16T17:41:39;5.55;;;3.65;;
9413;SDS011;4746;35.664;139.738;2022-09-16T17:44:10;4.93;;;3.45;;
9413;SDS011;4746;35.664;139.738;2022-09-16T17:46:40;4.38;;;3.10;;
9413;SDS011;4746;35.664;139.738;2022-09-16T17:49:13;6.47;;;3.50;;
9413;SDS011;4746;35.664;139.738;2022-09-16T17:51:49;6.65;;;3.25;;
9413;SDS011;4746;35.664;139.738;2022-09-16T17:54:18;7.40;;;3.50;;
9413;SDS011;4746;35.664;139.738;2022-09-16T17:56:46;5.25;;;3.90;;
9413;SDS011;4746;35.664;139.738;2022-09-16T17:59:15;5.88;;;3.00;;
9413;SDS011;4746;35.664;139.738;2022-09-16T18:01:44;4.65;;;3.00;;
9413;SDS011;4746;35.664;139.738;2022-09-16T18:04:13;9.90;;;4.03;;
9413;SDS011;4746;35.664;139.738;2022-09-16T18:06:44;7.38;;;3.40;;
9413;SDS011;4746;35.664;139.738;2022-09-16T18:09:12;6.28;;;3.28;;
9413;SDS011;4746;35.664;139.738;2022-09-16T18:11:41;5.72;;;3.30;;
9413;SDS011;4746;35.664;139.738;2022-09-16T18:14:10;3.95;;;2.58;;
9413;SDS011;4746;35.664;139.738;2022-09-16T18:16:39;5.75;;;3.10;;
9413;SDS011;4746;35.664;139.738;2022-09-16T18:19:07;4.70;;;3.25;;
9413;SDS011;4746;35.664;139.738;2022-09-16T18:21:35;6.50;;;3.65;;
9413;SDS011;4746;35.664;139.738;2022-09-16T18:24:03;4.78;;;4.15;;
9413;SDS011;4746;35.664;139.738;2022-09-16T18:26:35;5.68;;;3.42;;
9413;SDS011;4746;35.664;139.738;2022-09-16T18:29:03;5.93;;;4.07;;
9413;SDS011;4746;35.664;139.738;2022-09-16T18:31:31;6.30;;;3.70;;
9413;SDS011;4746;35.664;139.738;2022-09-16T18:33:59;7.28;;;4.05;;
9413;SDS011;4746;35.664;139.738;2022-09-16T18:36:27;8.30;;;4.97;;
9413;SDS011;4746;35.664;139.738;2022-09-16T18:38:57;7.63;;;5.10;;
9413;SDS011;4746;35.664;139.738;2022-09-16T18:41:28;8.90;;;5.45;;